Terminal Aerodrome Forecast
Issued by NWS Mobile, AL

Home | Current Version | Previous Version | Text Only | Print | Product List | Glossary On
Versions: 1 2 3 4 5 6 7 8 9 10 11 12 13
000
FTUS44 KMOB 292356
TAFPNS
TAF
KPNS 292356Z 3000/3024 30005KT P6SM VCTS FEW040CB FEW070 BKN150
     FM300300 29004KT P6SM FEW250
     FM301500 19007KT P6SM FEW250
     FM302100 21008KT P6SM FEW250=

USA.gov is the U.S. government's official web portal to all federal, state and local government web resources and services.